Time;durP1;ratioP1;P1;durP2;ratioP2;P2;SDS_P1;SDS_P2;PMS_P1;PMS_P2;Temp;Humidity;BMP_temperature;BMP_pressure;BME280_temperature;BME280_humidity;BME280_pressure;Samples;Min_cycle;Max_cycle;Signal;HPM_P1;HPM_P2
2021/01/28 00:02:23;;;;;;;12.30;6.30;;;3.40;99.90;;;;;;5067710;28;20203;-83
2021/01/28 00:04:51;;;;;;;8.05;6.97;;;3.50;99.90;;;;;;5063991;28;20195;-81
2021/01/28 00:07:19;;;;;;;10.27;8.00;;;3.50;99.90;;;;;;5069742;28;20195;-80
2021/01/28 00:09:48;;;;;;;9.52;7.78;;;3.50;99.90;;;;;;5059007;28;20676;-80
2021/01/28 00:12:15;;;;;;;7.50;6.50;;;3.40;99.90;;;;;;5068346;28;20195;-81
2021/01/28 00:14:42;;;;;;;9.20;7.43;;;3.40;99.90;;;;;;5057473;28;20252;-81
2021/01/28 00:17:10;;;;;;;7.85;6.93;;;3.40;99.90;;;;;;5049530;28;20611;-81
2021/01/28 00:19:37;;;;;;;7.93;6.85;;;3.60;99.90;;;;;;5052073;28;20195;-81
2021/01/28 00:22:07;;;;;;;8.18;6.65;;;3.60;99.90;;;;;;5070209;28;20253;-81
2021/01/28 00:24:36;;;;;;;9.63;7.55;;;3.60;99.90;;;;;;5058667;28;20607;-81
2021/01/28 00:27:04;;;;;;;8.50;6.90;;;3.60;99.90;;;;;;5060162;28;20227;-81
2021/01/28 00:29:36;;;;;;;10.10;7.70;;;3.50;99.90;;;;;;5048896;28;20238;-80
2021/01/28 00:32:03;;;;;;;7.75;6.43;;;3.60;99.90;;;;;;5062664;28;20324;-81
2021/01/28 00:34:30;;;;;;;8.57;6.90;;;3.50;99.90;;;;;;5049995;28;20720;-80
2021/01/28 00:36:56;;;;;;;8.43;7.03;;;3.40;99.90;;;;;;5049261;28;20266;-80
2021/01/28 00:39:23;;;;;;;8.00;6.72;;;3.50;99.90;;;;;;5050483;28;20292;-81
2021/01/28 00:41:50;;;;;;;6.75;6.07;;;3.60;99.90;;;;;;5064611;28;20195;-81
2021/01/28 00:44:16;;;;;;;8.52;6.60;;;3.40;99.90;;;;;;5053647;28;20204;-81
2021/01/28 00:46:43;;;;;;;9.13;6.22;;;3.50;99.90;;;;;;5071496;28;20242;-81
2021/01/28 00:49:09;;;;;;;8.82;7.38;;;3.50;99.90;;;;;;5056817;28;20208;-81
2021/01/28 00:51:36;;;;;;;7.47;6.57;;;3.60;99.90;;;;;;5062178;28;20875;-81
2021/01/28 00:54:02;;;;;;;9.63;7.05;;;3.50;99.90;;;;;;5070970;28;20200;-81
2021/01/28 00:56:30;;;;;;;8.52;6.63;;;3.60;99.90;;;;;;5070770;28;20227;-80
2021/01/28 00:58:56;;;;;;;8.43;6.88;;;3.60;99.90;;;;;;5065017;28;20196;-81
2021/01/28 01:01:22;;;;;;;7.70;6.85;;;3.60;99.90;;;;;;5067013;28;20200;-81
2021/01/28 01:03:49;;;;;;;7.68;6.35;;;3.60;99.90;;;;;;5070381;28;20211;-81
2021/01/28 01:06:15;;;;;;;9.82;7.00;;;3.60;99.90;;;;;;5068716;28;20726;-82
2021/01/28 01:08:42;;;;;;;6.88;6.18;;;3.70;99.90;;;;;;5059471;28;20200;-81
2021/01/28 01:11:11;;;;;;;8.90;7.40;;;3.70;99.90;;;;;;5056168;28;20231;-81
2021/01/28 01:13:40;;;;;;;8.23;6.43;;;3.60;99.90;;;;;;5053295;28;20595;-81
2021/01/28 01:16:10;;;;;;;9.15;7.32;;;3.60;99.90;;;;;;5063150;28;20195;-82
2021/01/28 01:18:37;;;;;;;8.40;7.57;;;3.70;99.90;;;;;;5062679;28;20270;-81
2021/01/28 01:21:05;;;;;;;9.75;7.07;;;3.80;99.90;;;;;;5062774;28;20203;-81
2021/01/28 01:23:32;;;;;;;9.20;7.43;;;3.90;99.90;;;;;;5053829;28;20673;-81
2021/01/28 01:25:59;;;;;;;7.68;5.93;;;3.70;99.90;;;;;;5052742;28;20234;-81
2021/01/28 01:28:26;;;;;;;7.72;6.93;;;3.70;99.90;;;;;;5051847;28;20673;-81
2021/01/28 01:30:54;;;;;;;7.30;6.55;;;3.70;99.90;;;;;;5050498;28;20552;-81
2021/01/28 01:33:21;;;;;;;8.30;7.30;;;3.70;99.90;;;;;;5052399;28;20191;-81
2021/01/28 01:35:47;;;;;;;7.25;6.45;;;3.60;99.90;;;;;;5062934;28;20207;-81
2021/01/28 01:38:14;;;;;;;8.43;6.60;;;3.60;99.90;;;;;;5070328;28;20199;-81
2021/01/28 01:40:42;;;;;;;8.65;7.15;;;3.70;99.90;;;;;;5070326;28;20196;-82
2021/01/28 01:43:12;;;;;;;6.85;5.85;;;3.90;99.90;;;;;;5072302;28;20211;-81
2021/01/28 01:45:42;;;;;;;7.30;6.30;;;3.80;99.90;;;;;;5066675;28;20234;-82
2021/01/28 01:48:15;;;;;;;6.85;5.70;;;3.70;99.90;;;;;;5071422;28;20214;-81
2021/01/28 01:50:47;;;;;;;6.97;5.80;;;3.80;99.90;;;;;;5066777;28;20212;-81
2021/01/28 01:53:17;;;;;;;7.38;6.35;;;3.70;99.90;;;;;;5054821;28;20204;-81
2021/01/28 01:55:50;;;;;;;7.75;6.15;;;3.80;99.90;;;;;;5059156;28;20279;-81
2021/01/28 01:58:29;;;;;;;8.60;6.38;;;3.80;99.90;;;;;;5067375;28;20609;-82
2021/01/28 02:00:55;;;;;;;6.05;5.45;;;3.80;99.90;;;;;;5061286;28;20218;-82
2021/01/28 02:03:27;;;;;;;7.32;6.63;;;3.70;99.90;;;;;;5060431;28;20231;-81
2021/01/28 02:06:09;;;;;;;6.55;5.85;;;3.60;99.90;;;;;;5072196;28;20199;-82
2021/01/28 02:08:36;;;;;;;6.45;5.85;;;3.70;99.90;;;;;;5051479;28;20270;-82
2021/01/28 02:11:09;;;;;;;6.05;5.43;;;3.80;99.90;;;;;;5056800;28;20227;-81
2021/01/28 02:13:38;;;;;;;6.88;5.70;;;3.80;99.90;;;;;;5058701;28;20592;-82
2021/01/28 02:16:07;;;;;;;6.72;6.05;;;3.80;99.90;;;;;;5063266;28;20693;-82
2021/01/28 02:18:36;;;;;;;7.45;5.57;;;3.70;99.90;;;;;;5065000;28;20669;-82
2021/01/28 02:21:22;;;;;;;6.30;4.85;;;3.70;99.90;;;;;;5062245;28;20564;-82
2021/01/28 02:24:25;;;;;;;6.55;5.85;;;3.80;99.90;;;;;;5064239;28;20204;-82
2021/01/28 02:27:01;;;;;;;8.35;5.60;;;3.80;99.90;;;;;;5050572;28;20684;-81
2021/01/28 02:29:48;;;;;;;5.57;4.97;;;3.60;99.90;;;;;;5061674;28;20203;-82
2021/01/28 02:32:16;;;;;;;4.88;4.40;;;3.70;99.90;;;;;;5068289;28;20199;-81
2021/01/28 02:34:44;;;;;;;4.82;4.25;;;3.80;99.90;;;;;;5067593;28;20223;-82
2021/01/28 02:37:15;;;;;;;5.13;3.88;;;3.60;99.90;;;;;;5050272;28;20211;-81
2021/01/28 02:39:43;;;;;;;6.10;4.80;;;3.60;99.90;;;;;;5057227;28;20209;-84
2021/01/28 02:42:19;;;;;;;5.05;4.35;;;3.60;99.90;;;;;;5057809;28;20210;-84
2021/01/28 02:44:46;;;;;;;5.88;4.18;;;3.60;99.90;;;;;;5056580;28;20199;-83
2021/01/28 02:47:15;;;;;;;4.15;3.80;;;3.60;99.90;;;;;;5068397;28;20199;-83
2021/01/28 02:49:42;;;;;;;5.70;4.40;;;3.60;99.90;;;;;;5068899;28;20199;-82
2021/01/28 02:52:11;;;;;;;5.13;4.40;;;3.60;99.90;;;;;;5052177;28;20215;-81
2021/01/28 02:54:40;;;;;;;3.60;3.28;;;3.80;99.90;;;;;;5054273;28;20290;-82
2021/01/28 02:57:09;;;;;;;5.57;4.22;;;3.80;99.90;;;;;;5050509;28;20203;-82
2021/01/28 02:59:37;;;;;;;4.50;4.10;;;3.90;99.90;;;;;;5055432;28;20202;-82
2021/01/28 03:02:06;;;;;;;5.22;3.85;;;3.90;99.90;;;;;;5051832;28;20254;-81
2021/01/28 03:04:33;;;;;;;3.55;3.25;;;3.90;99.90;;;;;;5050836;28;20211;-82
2021/01/28 03:06:59;;;;;;;3.80;3.15;;;3.90;99.90;;;;;;5050881;28;20200;-81
2021/01/28 03:09:26;;;;;;;5.72;4.13;;;4.00;99.90;;;;;;5050475;28;20200;-81
2021/01/28 03:11:52;;;;;;;3.90;3.50;;;4.00;99.90;;;;;;5069738;28;20215;-81
2021/01/28 03:14:19;;;;;;;7.15;3.67;;;4.10;99.90;;;;;;5051610;28;20214;-82
2021/01/28 03:16:46;;;;;;;4.07;3.60;;;4.00;99.90;;;;;;5063538;28;20187;-82
2021/01/28 03:19:12;;;;;;;4.35;3.33;;;4.00;99.90;;;;;;5050155;28;20219;-82
2021/01/28 03:21:39;;;;;;;5.32;4.82;;;4.00;99.90;;;;;;5068154;28;20200;-81
2021/01/28 03:24:06;;;;;;;3.90;3.50;;;4.20;99.90;;;;;;5059036;28;20557;-84
2021/01/28 03:26:33;;;;;;;4.00;3.63;;;4.30;99.90;;;;;;5069799;28;20200;-81
2021/01/28 03:28:59;;;;;;;4.57;4.00;;;4.30;99.90;;;;;;5060288;28;20548;-82
2021/01/28 03:31:25;;;;;;;4.57;4.18;;;4.00;99.90;;;;;;5064893;28;20219;-81
2021/01/28 03:33:53;;;;;;;7.55;4.25;;;3.80;99.90;;;;;;5062114;28;20218;-82
2021/01/28 03:36:26;;;;;;;6.63;4.35;;;3.80;99.90;;;;;;5066973;28;20241;-84
2021/01/28 03:39:00;;;;;;;5.75;4.32;;;3.90;99.90;;;;;;5061668;28;20845;-84
2021/01/28 03:41:27;;;;;;;4.85;4.38;;;4.00;99.90;;;;;;5059756;28;20199;-84
2021/01/28 03:44:08;;;;;;;6.47;4.45;;;4.30;99.90;;;;;;5063306;28;20195;-84
2021/01/28 03:46:35;;;;;;;4.25;3.85;;;4.00;99.90;;;;;;5053950;28;20564;-84
2021/01/28 03:49:02;;;;;;;4.97;4.25;;;3.90;99.90;;;;;;5057295;28;20206;-83
2021/01/28 03:51:29;;;;;;;7.03;4.15;;;4.10;99.90;;;;;;5067659;28;20223;-84
2021/01/28 03:53:55;;;;;;;5.15;3.53;;;4.20;99.90;;;;;;5064231;28;20212;-84
2021/01/28 03:56:21;;;;;;;4.20;3.80;;;4.10;99.90;;;;;;5062261;28;20199;-85
2021/01/28 03:58:48;;;;;;;4.28;3.67;;;4.00;99.90;;;;;;5049770;28;20211;-85
2021/01/28 04:01:14;;;;;;;4.97;3.15;;;4.20;99.90;;;;;;5065258;28;20199;-85
2021/01/28 04:03:41;;;;;;;4.30;3.90;;;4.20;99.90;;;;;;5070085;28;20578;-85
2021/01/28 04:06:08;;;;;;;10.10;4.80;;;4.40;99.90;;;;;;5068440;28;20200;-85
2021/01/28 04:08:35;;;;;;;4.72;4.30;;;4.30;99.90;;;;;;5065765;28;20204;-85
2021/01/28 04:11:01;;;;;;;6.68;5.78;;;4.30;99.90;;;;;;5049929;28;20220;-84
2021/01/28 04:13:27;;;;;;;6.68;5.40;;;4.30;99.90;;;;;;5051238;28;20188;-85
2021/01/28 04:15:56;;;;;;;6.75;5.50;;;4.20;99.90;;;;;;5050125;28;20565;-85
2021/01/28 04:18:23;;;;;;;7.85;5.70;;;4.20;99.90;;;;;;5066744;28;20215;-83
2021/01/28 04:20:50;;;;;;;6.32;5.40;;;4.30;99.90;;;;;;5070691;28;20204;-83
2021/01/28 04:23:18;;;;;;;7.25;5.78;;;4.50;99.90;;;;;;5055342;28;20239;-83
2021/01/28 04:25:44;;;;;;;7.60;6.03;;;4.40;99.90;;;;;;5057964;28;20235;-84
2021/01/28 04:28:11;;;;;;;7.18;5.95;;;4.50;99.90;;;;;;5064615;28;20203;-84
2021/01/28 04:30:38;;;;;;;9.18;7.18;;;4.50;99.90;;;;;;5059613;28;20223;-83
2021/01/28 04:33:06;;;;;;;8.25;6.68;;;4.40;99.90;;;;;;5072578;28;20211;-82
2021/01/28 04:35:33;;;;;;;9.85;6.80;;;4.40;99.90;;;;;;5063279;28;20220;-82
2021/01/28 04:37:59;;;;;;;8.05;6.45;;;4.40;99.90;;;;;;5053276;28;20203;-82
2021/01/28 04:40:31;;;;;;;7.20;5.88;;;4.50;99.90;;;;;;5063998;28;20200;-82
2021/01/28 04:43:00;;;;;;;7.55;5.78;;;4.30;99.90;;;;;;5053391;28;20746;-81
2021/01/28 04:45:30;;;;;;;7.50;5.07;;;4.40;99.90;;;;;;5057601;28;20590;-82
2021/01/28 04:47:59;;;;;;;7.05;4.88;;;4.30;99.90;;;;;;5073061;28;20207;-82
2021/01/28 04:50:29;;;;;;;6.90;6.20;;;4.20;99.90;;;;;;5053165;28;20216;-82
2021/01/28 04:53:01;;;;;;;9.95;6.90;;;4.40;99.90;;;;;;5053316;28;20249;-82
2021/01/28 04:55:37;;;;;;;9.23;6.63;;;4.30;99.90;;;;;;5063540;28;20196;-83
2021/01/28 04:58:04;;;;;;;8.80;5.75;;;4.10;99.90;;;;;;5053115;28;20235;-82
2021/01/28 05:00:31;;;;;;;7.00;6.25;;;4.30;99.90;;;;;;5061239;28;20199;-82
2021/01/28 05:03:12;;;;;;;8.50;6.38;;;4.40;99.90;;;;;;5073415;28;20211;-82
2021/01/28 05:05:39;;;;;;;7.75;6.13;;;4.30;99.90;;;;;;5068753;28;20245;-84
2021/01/28 05:08:06;;;;;;;7.70;5.68;;;4.40;99.90;;;;;;5071422;28;20653;-83
2021/01/28 05:10:41;;;;;;;9.77;5.80;;;4.50;99.90;;;;;;5065168;28;20250;-84
2021/01/28 05:13:08;;;;;;;8.15;6.40;;;4.60;99.90;;;;;;5073682;28;20245;-84
2021/01/28 05:15:37;;;;;;;7.50;6.07;;;4.70;99.90;;;;;;5055718;28;20200;-84
2021/01/28 05:18:21;;;;;;;7.15;5.43;;;4.60;99.90;;;;;;5060158;28;20197;-85
2021/01/28 05:20:47;;;;;;;6.75;6.05;;;4.70;99.90;;;;;;5060599;28;20208;-86
2021/01/28 05:23:31;;;;;;;6.72;6.00;;;4.70;99.90;;;;;;5062135;28;20652;-85
2021/01/28 05:25:59;;;;;;;7.43;5.30;;;4.70;99.90;;;;;;5058961;28;20222;-86
2021/01/28 05:28:30;;;;;;;8.18;6.28;;;4.70;99.90;;;;;;5063152;28;20222;-86
2021/01/28 05:30:59;;;;;;;6.90;5.85;;;4.70;99.90;;;;;;5057000;28;20305;-86
2021/01/28 05:33:37;;;;;;;5.88;5.35;;;4.60;99.90;;;;;;5052965;28;20725;-86
2021/01/28 05:36:11;;;;;;;5.93;4.95;;;4.70;99.90;;;;;;5053241;28;20207;-86
2021/01/28 05:38:40;;;;;;;8.75;5.40;;;4.80;99.90;;;;;;5054134;28;20246;-86
2021/01/28 05:41:11;;;;;;;6.45;5.22;;;4.60;99.90;;;;;;5059962;28;20193;-85
2021/01/28 05:43:41;;;;;;;6.93;5.47;;;4.70;99.90;;;;;;5052626;28;20208;-85
2021/01/28 05:46:15;;;;;;;7.72;5.45;;;4.80;99.90;;;;;;5049603;28;20195;-86
2021/01/28 05:48:42;;;;;;;5.75;5.07;;;4.70;99.90;;;;;;5050857;28;20294;-86
2021/01/28 05:51:13;;;;;;;5.88;5.28;;;4.80;99.90;;;;;;5067552;28;20219;-85
2021/01/28 05:53:40;;;;;;;6.43;5.43;;;4.70;99.90;;;;;;5071110;28;20602;-86
2021/01/28 05:56:15;;;;;;;8.40;5.68;;;4.80;99.90;;;;;;5063876;28;20785;-86
2021/01/28 05:58:56;;;;;;;6.85;6.00;;;4.80;99.90;;;;;;5072098;28;20341;-86
2021/01/28 06:01:35;;;;;;;6.57;4.80;;;4.70;99.90;;;;;;5073625;28;20203;-86
2021/01/28 06:04:43;;;;;;;6.05;5.15;;;4.80;99.90;;;;;;5072902;28;20207;-86
2021/01/28 06:07:40;;;;;;;6.68;5.03;;;4.80;99.90;;;;;;5042258;28;20622;-85
2021/01/28 06:10:39;;;;;;;5.95;4.68;;;4.90;99.90;;;;;;5059898;28;20230;-85
2021/01/28 06:13:20;;;;;;;5.20;4.70;;;4.70;99.90;;;;;;5072347;28;20210;-85
2021/01/28 06:15:54;;;;;;;9.18;5.22;;;4.70;99.90;;;;;;5072483;28;20203;-85
2021/01/28 06:18:49;;;;;;;8.10;5.15;;;4.80;99.90;;;;;;5071557;28;20194;-85
2021/01/28 06:21:37;;;;;;;7.38;6.63;;;4.70;99.90;;;;;;5039793;28;20258;-85
2021/01/28 06:24:29;;;;;;;6.15;4.90;;;4.70;99.90;;;;;;5054839;28;20210;-85
2021/01/28 06:27:05;;;;;;;8.48;5.38;;;4.70;99.90;;;;;;5055956;28;20208;-84
2021/01/28 06:29:50;;;;;;;6.18;5.25;;;4.70;99.90;;;;;;5054181;28;20665;-84
2021/01/28 06:33:02;;;;;;;7.75;5.70;;;4.70;99.90;;;;;;5054704;28;20231;-85
2021/01/28 06:35:51;;;;;;;8.30;6.00;;;4.60;99.90;;;;;;5054428;28;20222;-87
2021/01/28 06:38:29;;;;;;;7.25;5.20;;;4.60;99.90;;;;;;5056280;28;20669;-87
2021/01/28 06:41:01;;;;;;;8.32;5.00;;;4.60;99.90;;;;;;5057426;28;20196;-88
2021/01/28 06:43:35;;;;;;;5.85;5.10;;;4.70;99.90;;;;;;5056727;28;20208;-86
2021/01/28 06:46:34;;;;;;;5.72;4.65;;;4.60;99.90;;;;;;5067965;28;20203;-88
2021/01/28 06:49:14;;;;;;;8.07;4.32;;;4.50;99.90;;;;;;5048319;28;20212;-88
2021/01/28 06:51:51;;;;;;;7.63;4.65;;;4.50;99.90;;;;;;5056361;28;20219;-89
2021/01/28 06:54:26;;;;;;;4.40;4.00;;;4.70;99.90;;;;;;5056371;28;20235;-89
2021/01/28 06:57:01;;;;;;;6.57;3.80;;;4.70;99.90;;;;;;5070503;28;20237;-89
2021/01/28 06:59:44;;;;;;;4.32;3.92;;;4.70;99.90;;;;;;5059290;28;20715;-89
2021/01/28 07:02:19;;;;;;;5.50;4.45;;;4.80;99.90;;;;;;5075303;28;20191;-89
2021/01/28 07:04:53;;;;;;;6.28;4.57;;;4.70;99.90;;;;;;5058526;28;20196;-89
2021/01/28 07:07:24;;;;;;;7.32;5.18;;;4.80;99.90;;;;;;5054786;28;20314;-89
2021/01/28 07:09:57;;;;;;;6.82;5.30;;;4.90;99.90;;;;;;5057724;28;20192;-89
2021/01/28 07:12:36;;;;;;;5.25;4.75;;;4.80;99.90;;;;;;5074061;28;20215;-89
2021/01/28 07:15:05;;;;;;;5.68;4.47;;;4.90;99.90;;;;;;5055690;28;20287;-89
2021/01/28 07:17:37;;;;;;;7.75;4.78;;;4.90;99.90;;;;;;5060000;28;20299;-89
2021/01/28 07:20:08;;;;;;;6.30;4.30;;;4.80;99.90;;;;;;5057167;28;20722;-90
2021/01/28 07:22:37;;;;;;;6.70;4.30;;;4.90;99.90;;;;;;5056458;28;20210;-90
2021/01/28 07:25:26;;;;;;;4.47;3.70;;;5.00;99.90;;;;;;5069800;28;20249;-89
2021/01/28 07:27:57;;;;;;;7.82;4.90;;;4.90;99.90;;;;;;5063731;28;20278;-90
2021/01/28 07:30:41;;;;;;;6.13;4.30;;;5.80;99.90;;;;;;5069923;28;20206;-90
2021/01/28 07:33:48;;;;;;;6.50;4.80;;;4.90;99.90;;;;;;5074168;28;20222;-91
2021/01/28 07:36:41;;;;;;;6.53;5.25;;;4.80;99.90;;;;;;5072087;28;20203;-90
2021/01/28 07:39:39;;;;;;;5.60;5.10;;;4.70;99.90;;;;;;5059612;28;20207;-89
2021/01/28 07:42:25;;;;;;;8.52;4.72;;;4.70;99.90;;;;;;5053923;28;20196;-90
2021/01/28 07:44:55;;;;;;;6.78;5.18;;;4.70;99.90;;;;;;5054057;28;20230;-90
2021/01/28 07:47:55;;;;;;;6.90;5.15;;;4.70;99.90;;;;;;5069095;28;20218;-90
2021/01/28 07:50:40;;;;;;;13.77;3.80;;;4.80;99.90;;;;;;5063138;28;20306;-89
2021/01/28 07:53:37;;;;;;;5.32;4.15;;;4.70;99.90;;;;;;5056927;28;20642;-89
2021/01/28 07:56:06;;;;;;;6.70;3.60;;;4.70;99.90;;;;;;5060906;28;20229;-89
2021/01/28 07:58:36;;;;;;;5.47;4.45;;;4.70;99.90;;;;;;5060608;28;20192;-91
2021/01/28 08:01:10;;;;;;;7.05;5.20;;;4.80;99.90;;;;;;5065659;28;20668;-88
2021/01/28 08:03:47;;;;;;;8.35;4.75;;;4.60;99.90;;;;;;5074781;28;20243;-89
2021/01/28 08:06:16;;;;;;;5.70;4.65;;;4.40;99.90;;;;;;5077619;28;20219;-89
2021/01/28 08:08:43;;;;;;;5.60;4.88;;;4.50;99.90;;;;;;5078623;28;20207;-88
2021/01/28 08:11:18;;;;;;;4.88;4.03;;;4.60;99.90;;;;;;5064429;28;20220;-89
2021/01/28 08:13:46;;;;;;;7.03;4.10;;;4.70;99.90;;;;;;5077855;28;20202;-88
2021/01/28 08:16:18;;;;;;;7.20;5.07;;;4.70;99.90;;;;;;5078355;28;20214;-90
2021/01/28 08:18:59;;;;;;;6.93;4.65;;;4.60;99.90;;;;;;5069864;28;20191;-89
2021/01/28 08:21:28;;;;;;;7.90;4.70;;;4.70;99.90;;;;;;5065473;28;20630;-89
2021/01/28 08:23:55;;;;;;;4.45;3.78;;;4.80;99.90;;;;;;5064021;28;20614;-90
2021/01/28 08:26:30;;;;;;;4.20;3.80;;;4.80;99.90;;;;;;5062432;28;20215;-90
2021/01/28 08:29:07;;;;;;;4.97;4.00;;;4.70;99.90;;;;;;5075856;28;20667;-90
2021/01/28 08:31:38;;;;;;;7.35;4.60;;;4.70;99.90;;;;;;5062626;28;20215;-89
2021/01/28 08:34:06;;;;;;;4.90;3.75;;;4.90;99.90;;;;;;5071182;28;20200;-89
2021/01/28 08:36:44;;;;;;;4.13;3.72;;;4.80;99.90;;;;;;5071031;28;20211;-89
2021/01/28 08:39:15;;;;;;;4.05;3.70;;;4.80;99.90;;;;;;5076168;28;20278;-89
2021/01/28 08:41:43;;;;;;;5.68;3.35;;;5.10;99.90;;;;;;5064629;28;20592;-89
2021/01/28 08:44:13;;;;;;;4.68;4.18;;;4.90;99.90;;;;;;5078482;28;20540;-89
2021/01/28 08:46:42;;;;;;;4.70;3.75;;;4.90;99.90;;;;;;5065660;28;20605;-89
2021/01/28 08:49:14;;;;;;;5.18;3.58;;;4.90;99.90;;;;;;5078255;28;20283;-89
2021/01/28 08:51:49;;;;;;;3.70;3.40;;;5.00;99.90;;;;;;5062313;28;20219;-89
2021/01/28 08:54:19;;;;;;;3.97;3.08;;;4.90;99.90;;;;;;5062648;28;20214;-89
2021/01/28 08:56:49;;;;;;;4.72;3.60;;;5.10;99.90;;;;;;5063279;28;20269;-88
2021/01/28 08:59:18;;;;;;;3.90;3.60;;;5.30;99.90;;;;;;5062165;28;20204;-89
2021/01/28 09:01:49;;;;;;;4.32;3.65;;;4.90;99.90;;;;;;5062043;28;20191;-89
2021/01/28 09:04:23;;;;;;;3.58;3.22;;;5.00;99.90;;;;;;5063730;28;20650;-89
2021/01/28 09:06:51;;;;;;;3.53;3.20;;;5.10;99.90;;;;;;5064502;28;20270;-89
2021/01/28 09:09:24;;;;;;;3.17;2.88;;;5.10;99.90;;;;;;5082043;28;20199;-89
2021/01/28 09:11:51;;;;;;;4.60;2.95;;;5.40;99.90;;;;;;5063911;28;20212;-89
2021/01/28 09:14:36;;;;;;;6.45;4.00;;;4.90;99.90;;;;;;5062023;28;20291;-88
2021/01/28 09:17:10;;;;;;;3.80;3.17;;;4.90;99.90;;;;;;5063303;28;20208;-89
2021/01/28 09:19:42;;;;;;;2.67;2.47;;;5.00;99.90;;;;;;5061982;28;20232;-87
2021/01/28 09:22:27;;;;;;;4.43;2.90;;;5.00;99.90;;;;;;5069545;28;20681;-87
2021/01/28 09:24:54;;;;;;;6.10;4.55;;;5.10;99.90;;;;;;5063252;28;20199;-88
2021/01/28 09:27:34;;;;;;;5.93;3.33;;;5.10;99.90;;;;;;5059646;28;20215;-89
2021/01/28 09:30:20;;;;;;;3.80;2.92;;;5.10;99.90;;;;;;5063089;28;20544;-89
2021/01/28 09:32:50;;;;;;;4.65;2.70;;;5.10;99.90;;;;;;5069527;28;20222;-88
2021/01/28 09:35:21;;;;;;;4.53;3.13;;;5.10;99.90;;;;;;5070845;28;20219;-87
2021/01/28 09:38:04;;;;;;;2.95;2.65;;;5.10;99.90;;;;;;5059115;28;20203;-89
2021/01/28 09:40:34;;;;;;;3.30;3.00;;;5.20;99.90;;;;;;5058910;28;20241;-88
2021/01/28 09:43:26;;;;;;;3.33;2.97;;;5.30;99.90;;;;;;5071493;28;20216;-89
2021/01/28 09:46:14;;;;;;;2.65;2.40;;;5.10;99.90;;;;;;5063898;28;20211;-88
2021/01/28 09:48:41;;;;;;;2.97;2.70;;;5.10;99.90;;;;;;5065894;28;20195;-88
2021/01/28 09:51:10;;;;;;;3.20;2.90;;;5.20;99.90;;;;;;5078021;28;20211;-88
2021/01/28 09:53:38;;;;;;;3.42;2.92;;;5.20;99.90;;;;;;5060454;28;20192;-88
2021/01/28 09:56:07;;;;;;;3.25;3.00;;;5.20;99.90;;;;;;5074331;28;20203;-88
2021/01/28 09:58:33;;;;;;;4.57;2.80;;;5.10;99.90;;;;;;5069487;28;20291;-89
2021/01/28 10:01:00;;;;;;;2.92;2.25;;;5.30;99.90;;;;;;5073865;28;20195;-89
2021/01/28 10:03:26;;;;;;;3.45;3.15;;;5.30;99.90;;;;;;5062733;28;20272;-89
2021/01/28 10:05:53;;;;;;;3.10;2.80;;;5.30;99.90;;;;;;5073701;28;20257;-87
2021/01/28 10:08:20;;;;;;;2.78;2.25;;;5.10;99.90;;;;;;5075479;28;20207;-88
2021/01/28 10:10:47;;;;;;;3.38;2.65;;;5.20;99.90;;;;;;5066649;28;20235;-88
2021/01/28 10:13:17;;;;;;;3.50;2.53;;;5.30;99.90;;;;;;5074339;28;20695;-88
2021/01/28 10:15:44;;;;;;;3.15;2.08;;;5.30;99.90;;;;;;5063210;28;20270;-88
2021/01/28 10:18:10;;;;;;;2.50;2.15;;;5.40;99.90;;;;;;5075987;28;20196;-88
2021/01/28 10:20:40;;;;;;;1.90;1.80;;;5.40;99.90;;;;;;5059515;28;20669;-89
2021/01/28 10:23:07;;;;;;;2.72;2.53;;;5.50;99.90;;;;;;5072589;28;20286;-89
2021/01/28 10:25:33;;;;;;;3.15;2.33;;;5.50;99.90;;;;;;5076992;28;20213;-89
2021/01/28 10:28:01;;;;;;;3.00;2.05;;;5.50;99.90;;;;;;5076070;28;20222;-89
2021/01/28 10:30:27;;;;;;;2.15;1.55;;;5.50;99.90;;;;;;5070769;28;20199;-89
2021/01/28 10:32:57;;;;;;;3.72;2.55;;;5.60;99.90;;;;;;5076655;28;20229;-89
2021/01/28 10:35:26;;;;;;;2.20;2.00;;;5.60;99.90;;;;;;5060393;28;20192;-90
2021/01/28 10:37:53;;;;;;;2.20;1.85;;;5.60;99.90;;;;;;5072335;28;20207;-89
2021/01/28 10:40:21;;;;;;;2.08;1.83;;;5.60;99.90;;;;;;5072140;28;20557;-89
2021/01/28 10:42:48;;;;;;;3.35;2.15;;;5.80;99.90;;;;;;5058420;28;20196;-89
2021/01/28 10:45:18;;;;;;;1.75;1.65;;;5.70;99.90;;;;;;5073041;28;20277;-89
2021/01/28 10:47:45;;;;;;;2.80;2.45;;;5.70;99.90;;;;;;5078938;28;20199;-90
2021/01/28 10:50:12;;;;;;;2.20;1.65;;;5.90;99.90;;;;;;5076881;28;20727;-91
2021/01/28 10:52:41;;;;;;;2.20;2.05;;;5.90;99.90;;;;;;5081152;28;20321;-90
2021/01/28 10:55:09;;;;;;;2.38;2.17;;;5.90;99.90;;;;;;5071984;28;20203;-90
2021/01/28 10:57:36;;;;;;;4.00;2.10;;;5.90;99.90;;;;;;5077756;28;20192;-90
2021/01/28 11:00:05;;;;;;;2.17;1.95;;;6.00;99.90;;;;;;5079353;28;20544;-91
2021/01/28 11:02:34;;;;;;;2.40;2.20;;;6.10;99.90;;;;;;5075522;28;20269;-90
2021/01/28 11:05:01;;;;;;;6.13;2.35;;;6.20;99.90;;;;;;5080177;28;20200;-90
2021/01/28 11:07:29;;;;;;;5.60;2.47;;;6.30;99.90;;;;;;5079107;28;20199;-91
2021/01/28 11:09:58;;;;;;;4.85;2.30;;;6.20;99.90;;;;;;5064806;28;20200;-90
2021/01/28 11:12:25;;;;;;;2.30;2.10;;;6.60;99.90;;;;;;5079379;28;20654;-90
2021/01/28 11:14:52;;;;;;;5.57;1.73;;;6.20;99.90;;;;;;5079078;28;20782;-90
2021/01/28 11:17:21;;;;;;;2.47;2.28;;;6.30;99.90;;;;;;5079502;28;20268;-90
2021/01/28 11:19:49;;;;;;;2.88;2.50;;;5.80;99.90;;;;;;5077369;28;20653;-90
2021/01/28 11:22:16;;;;;;;6.47;3.85;;;6.30;99.90;;;;;;5061994;28;20245;-90
2021/01/28 11:24:44;;;;;;;4.22;3.80;;;6.20;99.90;;;;;;5070107;28;20192;-89
2021/01/28 11:27:12;;;;;;;2.20;2.10;;;6.30;99.90;;;;;;5059569;28;20211;-89
2021/01/28 11:29:41;;;;;;;2.20;1.70;;;6.40;99.90;;;;;;5060522;28;20208;-89
2021/01/28 11:32:08;;;;;;;3.00;2.53;;;6.30;99.90;;;;;;5060080;28;20318;-89
2021/01/28 11:34:35;;;;;;;3.08;2.88;;;6.20;99.90;;;;;;5071624;28;20215;-90
2021/01/28 11:37:03;;;;;;;2.90;2.67;;;6.30;99.90;;;;;;5077386;28;20558;-90
2021/01/28 11:39:29;;;;;;;2.17;1.98;;;6.50;99.90;;;;;;5061098;28;20241;-90
2021/01/28 11:41:56;;;;;;;2.25;2.05;;;6.70;99.90;;;;;;5078917;28;20206;-89
2021/01/28 11:44:26;;;;;;;2.50;2.30;;;6.80;99.90;;;;;;5064789;28;20211;-90
2021/01/28 11:47:07;;;;;;;3.50;2.47;;;7.00;99.90;;;;;;5078518;28;20806;-89
2021/01/28 11:55:40;;;;;;;3.55;2.30;;;7.30;99.90;;;;;;5062645;28;20202;-89
2021/01/28 12:01:12;;;;;;;3.70;2.40;;;7.50;99.90;;;;;;5062190;28;20196;-89
2021/01/28 12:03:39;;;;;;;3.38;2.97;;;7.30;99.90;;;;;;5077805;28;20211;-88
2021/01/28 12:06:06;;;;;;;2.00;1.90;;;7.40;99.90;;;;;;5065986;28;20204;-88
2021/01/28 12:08:34;;;;;;;3.90;2.78;;;7.40;99.90;;;;;;5061557;28;20196;-89
2021/01/28 12:11:00;;;;;;;2.75;2.50;;;7.50;99.90;;;;;;5065555;28;20220;-89
2021/01/28 12:13:27;;;;;;;2.30;2.00;;;7.60;99.90;;;;;;5073575;28;20241;-89
2021/01/28 12:15:54;;;;;;;2.22;2.05;;;7.70;99.90;;;;;;5065532;28;20237;-89
2021/01/28 12:18:20;;;;;;;2.00;1.90;;;7.70;99.90;;;;;;5076855;28;20242;-88
2021/01/28 12:20:47;;;;;;;2.10;2.00;;;7.70;99.90;;;;;;5074266;28;20268;-88
2021/01/28 12:23:14;;;;;;;2.50;2.30;;;7.80;99.90;;;;;;5074612;28;20658;-89
2021/01/28 12:25:41;;;;;;;2.00;1.80;;;7.80;99.90;;;;;;5064330;28;20546;-88
2021/01/28 12:28:08;;;;;;;2.60;2.40;;;7.70;99.90;;;;;;5066481;28;20196;-89
2021/01/28 12:30:35;;;;;;;3.08;1.70;;;7.80;99.90;;;;;;5062762;28;20197;-89
2021/01/28 12:33:01;;;;;;;2.17;1.98;;;7.80;99.90;;;;;;5059016;28;20215;-89
2021/01/28 12:35:28;;;;;;;1.95;1.60;;;7.90;99.90;;;;;;5064338;28;20214;-88
2021/01/28 12:37:57;;;;;;;2.17;1.98;;;7.90;99.90;;;;;;5067741;28;20192;-87
2021/01/28 12:40:25;;;;;;;2.40;2.05;;;7.80;99.90;;;;;;5067599;28;20196;-88
2021/01/28 12:42:53;;;;;;;2.28;2.00;;;7.90;99.90;;;;;;5056359;28;20233;-86
2021/01/28 12:45:24;;;;;;;1.80;1.70;;;8.00;99.90;;;;;;5076087;28;20204;-87
2021/01/28 12:47:50;;;;;;;2.17;1.90;;;8.10;99.90;;;;;;5070285;28;20591;-87
2021/01/28 12:50:17;;;;;;;2.10;1.58;;;8.10;99.90;;;;;;5067822;28;20600;-87
2021/01/28 12:52:55;;;;;;;2.03;1.70;;;8.00;99.90;;;;;;5074544;28;20622;-87
2021/01/28 12:55:25;;;;;;;2.03;1.90;;;8.00;99.90;;;;;;5067365;28;20223;-87
2021/01/28 12:58:14;;;;;;;1.70;1.60;;;8.20;99.90;;;;;;5068610;28;20199;-87
2021/01/28 13:00:42;;;;;;;2.00;1.90;;;8.30;99.90;;;;;;5073363;28;20195;-87
2021/01/28 13:03:08;;;;;;;1.77;1.67;;;8.60;99.90;;;;;;5073795;28;20672;-87
2021/01/28 13:05:35;;;;;;;1.97;1.77;;;8.80;99.90;;;;;;5071596;28;20528;-86
2021/01/28 13:08:01;;;;;;;2.20;1.93;;;8.90;99.90;;;;;;5067991;28;20685;-86
2021/01/28 13:10:28;;;;;;;1.77;1.43;;;9.20;99.90;;;;;;5067983;28;20652;-87
2021/01/28 13:12:55;;;;;;;2.07;1.97;;;9.40;99.90;;;;;;5074938;28;20653;-87
2021/01/28 13:15:22;;;;;;;1.90;1.80;;;9.20;99.90;;;;;;5074748;28;20990;-86
2021/01/28 13:17:50;;;;;;;1.70;1.60;;;9.10;99.90;;;;;;5074007;28;20613;-86
2021/01/28 13:20:18;;;;;;;1.77;1.67;;;9.10;99.90;;;;;;5074844;28;20207;-86
2021/01/28 13:22:44;;;;;;;1.67;1.57;;;9.20;99.90;;;;;;5070072;28;20621;-86
2021/01/28 13:25:14;;;;;;;2.00;1.37;;;9.20;99.90;;;;;;5062102;28;20610;-85
2021/01/28 13:27:41;;;;;;;1.00;1.00;;;9.20;99.90;;;;;;5072728;28;20613;-85
2021/01/28 13:30:09;;;;;;;0.80;0.80;;;8.90;99.90;;;;;;5073000;28;20646;-84